sensor_id;sensor_type;location;lat;lon;timestamp;temperature;humidity
39219;DHT22;24934;52.752;6.964;2023-06-24T00:01:36;15.60;99.90
39219;DHT22;24934;52.752;6.964;2023-06-24T00:04:03;15.50;99.90
39219;DHT22;24934;52.752;6.964;2023-06-24T00:06:29;15.40;99.90
39219;DHT22;24934;52.752;6.964;2023-06-24T00:08:55;15.40;99.90
39219;DHT22;24934;52.752;6.964;2023-06-24T00:11:27;15.30;99.90
39219;DHT22;24934;52.752;6.964;2023-06-24T00:13:53;15.20;99.90
39219;DHT22;24934;52.752;6.964;2023-06-24T00:16:18;15.20;99.90
39219;DHT22;24934;52.752;6.964;2023-06-24T00:18:51;15.20;99.90
39219;DHT22;24934;52.752;6.964;2023-06-24T00:21:18;15.10;99.90
39219;DHT22;24934;52.752;6.964;2023-06-24T00:23:45;15.10;99.90
39219;DHT22;24934;52.752;6.964;2023-06-24T00:26:10;15.20;99.90
39219;DHT22;24934;52.752;6.964;2023-06-24T00:28:36;15.20;99.90
39219;DHT22;24934;52.752;6.964;2023-06-24T00:31:02;15.10;99.90
39219;DHT22;24934;52.752;6.964;2023-06-24T00:33:28;15.10;99.90
39219;DHT22;24934;52.752;6.964;2023-06-24T00:35:54;15.00;99.90
39219;DHT22;24934;52.752;6.964;2023-06-24T00:38:22;15.00;99.90
39219;DHT22;24934;52.752;6.964;2023-06-24T00:40:47;14.90;99.90
39219;DHT22;24934;52.752;6.964;2023-06-24T00:43:13;14.90;99.90
39219;DHT22;24934;52.752;6.964;2023-06-24T00:45:39;14.90;99.90
39219;DHT22;24934;52.752;6.964;2023-06-24T00:48:05;14.80;99.90
39219;DHT22;24934;52.752;6.964;2023-06-24T00:50:30;14.80;99.90
39219;DHT22;24934;52.752;6.964;2023-06-24T00:52:56;14.80;99.90
39219;DHT22;24934;52.752;6.964;2023-06-24T00:55:22;14.80;99.90
39219;DHT22;24934;52.752;6.964;2023-06-24T00:57:50;14.80;99.90
39219;DHT22;24934;52.752;6.964;2023-06-24T01:00:21;14.70;99.90
39219;DHT22;24934;52.752;6.964;2023-06-24T01:02:49;14.70;99.90
39219;DHT22;24934;52.752;6.964;2023-06-24T01:05:15;14.70;99.90
39219;DHT22;24934;52.752;6.964;2023-06-24T01:07:42;14.70;99.90
39219;DHT22;24934;52.752;6.964;2023-06-24T01:10:10;14.70;99.90
39219;DHT22;24934;52.752;6.964;2023-06-24T01:12:39;14.60;99.90
39219;DHT22;24934;52.752;6.964;2023-06-24T01:15:06;14.60;99.90
39219;DHT22;24934;52.752;6.964;2023-06-24T01:17:41;14.60;99.90
39219;DHT22;24934;52.752;6.964;2023-06-24T01:20:22;14.60;99.90
39219;DHT22;24934;52.752;6.964;2023-06-24T01:23:18;14.60;99.90
39219;DHT22;24934;52.752;6.964;2023-06-24T01:26:05;14.60;99.90
39219;DHT22;24934;52.752;6.964;2023-06-24T01:29:09;14.60;99.90
39219;DHT22;24934;52.752;6.964;2023-06-24T01:37:12;14.40;99.90
39219;DHT22;24934;52.752;6.964;2023-06-24T01:39:49;14.40;99.90
39219;DHT22;24934;52.752;6.964;2023-06-24T01:42:17;14.40;99.90
39219;DHT22;24934;52.752;6.964;2023-06-24T01:44:44;14.40;99.90
39219;DHT22;24934;52.752;6.964;2023-06-24T01:47:11;14.40;99.90
39219;DHT22;24934;52.752;6.964;2023-06-24T01:49:40;14.40;99.90
39219;DHT22;24934;52.752;6.964;2023-06-24T01:52:08;14.30;99.90
39219;DHT22;24934;52.752;6.964;2023-06-24T01:54:53;14.30;99.90
39219;DHT22;24934;52.752;6.964;2023-06-24T01:58:04;14.20;99.90
39219;DHT22;24934;52.752;6.964;2023-06-24T02:01:05;14.20;99.90
39219;DHT22;24934;52.752;6.964;2023-06-24T02:06:46;14.10;99.90
39219;DHT22;24934;52.752;6.964;2023-06-24T02:09:15;14.10;99.90
39219;DHT22;24934;52.752;6.964;2023-06-24T02:11:43;14.10;99.90
39219;DHT22;24934;52.752;6.964;2023-06-24T02:14:10;14.20;99.90
39219;DHT22;24934;52.752;6.964;2023-06-24T02:16:41;14.20;99.90
39219;DHT22;24934;52.752;6.964;2023-06-24T02:19:08;14.20;99.90
39219;DHT22;24934;52.752;6.964;2023-06-24T02:21:39;14.20;99.90
39219;DHT22;24934;52.752;6.964;2023-06-24T02:24:10;14.20;99.90
39219;DHT22;24934;52.752;6.964;2023-06-24T02:26:37;14.20;99.90
39219;DHT22;24934;52.752;6.964;2023-06-24T02:29:10;14.30;99.90
39219;DHT22;24934;52.752;6.964;2023-06-24T02:31:38;14.30;99.90
39219;DHT22;24934;52.752;6.964;2023-06-24T02:34:03;14.30;99.90
39219;DHT22;24934;52.752;6.964;2023-06-24T02:36:29;14.30;99.90
39219;DHT22;24934;52.752;6.964;2023-06-24T02:38:55;14.30;99.90
39219;DHT22;24934;52.752;6.964;2023-06-24T02:41:20;14.30;99.90
39219;DHT22;24934;52.752;6.964;2023-06-24T02:43:46;14.30;99.90
39219;DHT22;24934;52.752;6.964;2023-06-24T02:46:15;14.30;99.90
39219;DHT22;24934;52.752;6.964;2023-06-24T02:48:42;14.30;99.90
39219;DHT22;24934;52.752;6.964;2023-06-24T02:51:08;14.30;99.90
39219;DHT22;24934;52.752;6.964;2023-06-24T02:53:37;14.30;99.90
39219;DHT22;24934;52.752;6.964;2023-06-24T02:56:04;14.30;99.90
39219;DHT22;24934;52.752;6.964;2023-06-24T02:58:32;14.30;99.90
39219;DHT22;24934;52.752;6.964;2023-06-24T03:01:01;14.20;99.90
39219;DHT22;24934;52.752;6.964;2023-06-24T03:03:29;14.30;99.90
39219;DHT22;24934;52.752;6.964;2023-06-24T03:05:55;14.20;99.90
39219;DHT22;24934;52.752;6.964;2023-06-24T03:08:24;14.20;99.90
39219;DHT22;24934;52.752;6.964;2023-06-24T03:10:54;14.20;99.90
39219;DHT22;24934;52.752;6.964;2023-06-24T03:13:23;14.20;99.90
39219;DHT22;24934;52.752;6.964;2023-06-24T03:15:48;14.20;99.90
39219;DHT22;24934;52.752;6.964;2023-06-24T03:18:15;14.20;99.90
39219;DHT22;24934;52.752;6.964;2023-06-24T03:20:41;14.20;99.90
39219;DHT22;24934;52.752;6.964;2023-06-24T03:23:07;14.30;99.90
39219;DHT22;24934;52.752;6.964;2023-06-24T03:25:34;14.20;99.90
39219;DHT22;24934;52.752;6.964;2023-06-24T03:28:00;14.30;99.90
39219;DHT22;24934;52.752;6.964;2023-06-24T03:30:29;14.30;99.90
39219;DHT22;24934;52.752;6.964;2023-06-24T03:33:00;14.30;99.90
39219;DHT22;24934;52.752;6.964;2023-06-24T03:35:26;14.30;99.90
39219;DHT22;24934;52.752;6.964;2023-06-24T03:37:52;14.30;99.90
39219;DHT22;24934;52.752;6.964;2023-06-24T03:40:21;14.40;99.90
39219;DHT22;24934;52.752;6.964;2023-06-24T03:42:46;14.40;99.90
39219;DHT22;24934;52.752;6.964;2023-06-24T03:45:14;14.40;99.90
39219;DHT22;24934;52.752;6.964;2023-06-24T03:47:40;14.40;99.90
39219;DHT22;24934;52.752;6.964;2023-06-24T03:50:06;14.50;99.90
39219;DHT22;24934;52.752;6.964;2023-06-24T03:52:32;14.50;99.90
39219;DHT22;24934;52.752;6.964;2023-06-24T03:54:58;14.50;99.90
39219;DHT22;24934;52.752;6.964;2023-06-24T03:57:23;14.50;99.90
39219;DHT22;24934;52.752;6.964;2023-06-24T03:59:49;14.60;99.90
39219;DHT22;24934;52.752;6.964;2023-06-24T04:02:15;14.60;99.90
39219;DHT22;24934;52.752;6.964;2023-06-24T04:04:41;14.70;99.90
39219;DHT22;24934;52.752;6.964;2023-06-24T04:07:06;14.70;99.90
39219;DHT22;24934;52.752;6.964;2023-06-24T04:09:33;14.70;99.90
39219;DHT22;24934;52.752;6.964;2023-06-24T04:11:59;14.80;99.90
39219;DHT22;24934;52.752;6.964;2023-06-24T04:14:25;14.90;99.90
39219;DHT22;24934;52.752;6.964;2023-06-24T04:16:51;15.00;99.90
39219;DHT22;24934;52.752;6.964;2023-06-24T04:19:16;15.20;99.90
39219;DHT22;24934;52.752;6.964;2023-06-24T04:21:42;15.20;99.90
39219;DHT22;24934;52.752;6.964;2023-06-24T04:24:08;15.30;99.90
39219;DHT22;24934;52.752;6.964;2023-06-24T04:26:33;15.40;99.90
39219;DHT22;24934;52.752;6.964;2023-06-24T04:28:59;15.90;99.90
39219;DHT22;24934;52.752;6.964;2023-06-24T04:31:27;16.50;99.90
39219;DHT22;24934;52.752;6.964;2023-06-24T04:33:53;16.90;99.90
39219;DHT22;24934;52.752;6.964;2023-06-24T04:36:19;17.10;99.90
39219;DHT22;24934;52.752;6.964;2023-06-24T04:38:44;17.10;99.90
39219;DHT22;24934;52.752;6.964;2023-06-24T04:41:10;17.00;99.90
39219;DHT22;24934;52.752;6.964;2023-06-24T04:43:36;17.00;99.90
39219;DHT22;24934;52.752;6.964;2023-06-24T04:46:02;17.00;99.90
39219;DHT22;24934;52.752;6.964;2023-06-24T04:48:30;17.00;99.90
39219;DHT22;24934;52.752;6.964;2023-06-24T04:50:55;17.00;99.90
39219;DHT22;24934;52.752;6.964;2023-06-24T04:53:23;17.00;99.90
39219;DHT22;24934;52.752;6.964;2023-06-24T04:55:49;17.00;99.90
39219;DHT22;24934;52.752;6.964;2023-06-24T04:58:15;17.00;99.90
39219;DHT22;24934;52.752;6.964;2023-06-24T05:00:40;17.10;99.90
39219;DHT22;24934;52.752;6.964;2023-06-24T05:03:06;17.10;99.90
39219;DHT22;24934;52.752;6.964;2023-06-24T05:05:31;17.10;99.90
39219;DHT22;24934;52.752;6.964;2023-06-24T05:07:57;17.20;99.90
39219;DHT22;24934;52.752;6.964;2023-06-24T05:10:23;17.40;99.90
39219;DHT22;24934;52.752;6.964;2023-06-24T05:12:48;17.40;99.90
39219;DHT22;24934;52.752;6.964;2023-06-24T05:15:14;17.50;99.90
39219;DHT22;24934;52.752;6.964;2023-06-24T05:17:40;17.50;99.90
39219;DHT22;24934;52.752;6.964;2023-06-24T05:20:06;17.60;99.90
39219;DHT22;24934;52.752;6.964;2023-06-24T05:22:32;17.70;99.90
39219;DHT22;24934;52.752;6.964;2023-06-24T05:24:57;17.90;99.90
39219;DHT22;24934;52.752;6.964;2023-06-24T05:27:23;17.90;99.90
39219;DHT22;24934;52.752;6.964;2023-06-24T05:29:49;18.00;99.90
39219;DHT22;24934;52.752;6.964;2023-06-24T05:32:14;18.10;99.90
39219;DHT22;24934;52.752;6.964;2023-06-24T05:34:51;18.10;99.90
39219;DHT22;24934;52.752;6.964;2023-06-24T05:37:20;18.20;99.90
39219;DHT22;24934;52.752;6.964;2023-06-24T05:39:45;18.20;99.90
39219;DHT22;24934;52.752;6.964;2023-06-24T05:42:11;18.30;99.90
39219;DHT22;24934;52.752;6.964;2023-06-24T05:44:37;18.40;99.90
39219;DHT22;24934;52.752;6.964;2023-06-24T05:47:02;18.50;99.90
39219;DHT22;24934;52.752;6.964;2023-06-24T05:49:28;18.60;99.90
39219;DHT22;24934;52.752;6.964;2023-06-24T05:51:54;18.70;99.90
39219;DHT22;24934;52.752;6.964;2023-06-24T05:54:19;18.70;99.90
39219;DHT22;24934;52.752;6.964;2023-06-24T05:56:45;18.80;99.90
39219;DHT22;24934;52.752;6.964;2023-06-24T05:59:11;18.90;99.90
39219;DHT22;24934;52.752;6.964;2023-06-24T06:01:36;18.90;99.90
39219;DHT22;24934;52.752;6.964;2023-06-24T06:04:02;19.10;99.90
39219;DHT22;24934;52.752;6.964;2023-06-24T06:06:28;19.20;99.90
39219;DHT22;24934;52.752;6.964;2023-06-24T06:08:56;19.20;99.90
39219;DHT22;24934;52.752;6.964;2023-06-24T06:11:21;19.30;99.90
39219;DHT22;24934;52.752;6.964;2023-06-24T06:13:47;19.30;99.90
39219;DHT22;24934;52.752;6.964;2023-06-24T06:16:12;19.40;99.90
39219;DHT22;24934;52.752;6.964;2023-06-24T06:18:39;19.50;99.90
39219;DHT22;24934;52.752;6.964;2023-06-24T06:21:05;19.50;99.90
39219;DHT22;24934;52.752;6.964;2023-06-24T06:23:31;19.60;99.90
39219;DHT22;24934;52.752;6.964;2023-06-24T06:25:57;19.50;99.90
39219;DHT22;24934;52.752;6.964;2023-06-24T06:28:22;19.50;99.90
39219;DHT22;24934;52.752;6.964;2023-06-24T06:30:51;19.60;99.90
39219;DHT22;24934;52.752;6.964;2023-06-24T06:33:18;19.70;99.90
39219;DHT22;24934;52.752;6.964;2023-06-24T06:35:43;19.80;99.90
39219;DHT22;24934;52.752;6.964;2023-06-24T06:38:10;19.80;99.90
39219;DHT22;24934;52.752;6.964;2023-06-24T06:40:35;20.00;99.90
39219;DHT22;24934;52.752;6.964;2023-06-24T06:43:04;20.10;99.90
39219;DHT22;24934;52.752;6.964;2023-06-24T06:45:29;20.20;99.90
39219;DHT22;24934;52.752;6.964;2023-06-24T06:47:55;20.40;99.90
39219;DHT22;24934;52.752;6.964;2023-06-24T06:50:21;20.50;99.90
39219;DHT22;24934;52.752;6.964;2023-06-24T06:52:47;20.50;99.90
39219;DHT22;24934;52.752;6.964;2023-06-24T06:55:19;20.70;99.90
39219;DHT22;24934;52.752;6.964;2023-06-24T06:57:46;21.00;99.90
39219;DHT22;24934;52.752;6.964;2023-06-24T07:00:12;21.20;99.90
39219;DHT22;24934;52.752;6.964;2023-06-24T07:02:40;21.40;99.90
39219;DHT22;24934;52.752;6.964;2023-06-24T07:05:06;21.50;99.90
39219;DHT22;24934;52.752;6.964;2023-06-24T07:07:39;21.60;99.90
39219;DHT22;24934;52.752;6.964;2023-06-24T07:10:11;21.60;99.90
39219;DHT22;24934;52.752;6.964;2023-06-24T07:12:36;21.70;99.90
39219;DHT22;24934;52.752;6.964;2023-06-24T07:15:02;21.70;99.90
39219;DHT22;24934;52.752;6.964;2023-06-24T07:17:28;21.90;99.90
39219;DHT22;24934;52.752;6.964;2023-06-24T07:19:56;22.00;99.90
39219;DHT22;24934;52.752;6.964;2023-06-24T07:22:22;21.90;99.90
39219;DHT22;24934;52.752;6.964;2023-06-24T07:24:48;22.10;99.90
39219;DHT22;24934;52.752;6.964;2023-06-24T07:27:13;22.10;99.90
39219;DHT22;24934;52.752;6.964;2023-06-24T07:29:42;22.20;99.90
39219;DHT22;24934;52.752;6.964;2023-06-24T07:32:08;22.20;99.90
39219;DHT22;24934;52.752;6.964;2023-06-24T07:34:39;22.40;99.90
39219;DHT22;24934;52.752;6.964;2023-06-24T07:37:08;22.50;99.90
39219;DHT22;24934;52.752;6.964;2023-06-24T07:39:36;22.60;99.90
39219;DHT22;24934;52.752;6.964;2023-06-24T07:42:02;22.60;99.90
39219;DHT22;24934;52.752;6.964;2023-06-24T07:44:34;22.60;99.90
39219;DHT22;24934;52.752;6.964;2023-06-24T07:47:02;22.70;99.90
39219;DHT22;24934;52.752;6.964;2023-06-24T07:49:37;22.80;99.90
39219;DHT22;24934;52.752;6.964;2023-06-24T07:52:11;22.90;99.90
39219;DHT22;24934;52.752;6.964;2023-06-24T07:54:39;23.00;99.90
39219;DHT22;24934;52.752;6.964;2023-06-24T07:57:31;23.10;99.90
39219;DHT22;24934;52.752;6.964;2023-06-24T08:00:00;23.30;99.90
39219;DHT22;24934;52.752;6.964;2023-06-24T08:02:25;23.90;99.90
39219;DHT22;24934;52.752;6.964;2023-06-24T08:04:52;25.20;99.90
39219;DHT22;24934;52.752;6.964;2023-06-24T08:07:17;26.50;99.90
39219;DHT22;24934;52.752;6.964;2023-06-24T08:09:47;27.30;99.90
39219;DHT22;24934;52.752;6.964;2023-06-24T08:12:16;28.20;99.90
39219;DHT22;24934;52.752;6.964;2023-06-24T08:14:49;29.10;99.90
39219;DHT22;24934;52.752;6.964;2023-06-24T08:17:15;29.40;99.90
39219;DHT22;24934;52.752;6.964;2023-06-24T08:19:41;30.00;99.90
39219;DHT22;24934;52.752;6.964;2023-06-24T08:22:06;30.90;99.90
39219;DHT22;24934;52.752;6.964;2023-06-24T08:24:36;30.80;99.90
39219;DHT22;24934;52.752;6.964;2023-06-24T08:27:02;31.10;99.90
39219;DHT22;24934;52.752;6.964;2023-06-24T08:29:27;31.30;99.90
39219;DHT22;24934;52.752;6.964;2023-06-24T08:31:59;31.90;99.90
39219;DHT22;24934;52.752;6.964;2023-06-24T08:34:24;32.60;99.90
39219;DHT22;24934;52.752;6.964;2023-06-24T08:36:53;32.60;99.90
39219;DHT22;24934;52.752;6.964;2023-06-24T08:39:18;32.30;99.90
39219;DHT22;24934;52.752;6.964;2023-06-24T08:41:44;33.10;99.90
39219;DHT22;24934;52.752;6.964;2023-06-24T08:44:12;33.50;99.90
39219;DHT22;24934;52.752;6.964;2023-06-24T08:46:38;33.70;99.90
39219;DHT22;24934;52.752;6.964;2023-06-24T08:51:41;34.10;99.10
39219;DHT22;24934;52.752;6.964;2023-06-24T08:54:10;34.30;98.90
39219;DHT22;24934;52.752;6.964;2023-06-24T08:56:37;34.20;98.10
39219;DHT22;24934;52.752;6.964;2023-06-24T08:59:06;34.50;98.50
39219;DHT22;24934;52.752;6.964;2023-06-24T09:01:32;34.70;97.60
39219;DHT22;24934;52.752;6.964;2023-06-24T09:04:00;34.40;97.60
39219;DHT22;24934;52.752;6.964;2023-06-24T09:06:26;34.70;97.30
39219;DHT22;24934;52.752;6.964;2023-06-24T09:08:55;35.20;96.20
39219;DHT22;24934;52.752;6.964;2023-06-24T09:11:33;34.50;97.10
39219;DHT22;24934;52.752;6.964;2023-06-24T09:13:59;33.50;96.90
39219;DHT22;24934;52.752;6.964;2023-06-24T09:16:26;32.40;97.60
39219;DHT22;24934;52.752;6.964;2023-06-24T09:18:53;31.30;98.50
39219;DHT22;24934;52.752;6.964;2023-06-24T09:21:27;30.80;99.60
39219;DHT22;24934;52.752;6.964;2023-06-24T09:23:57;30.80;99.90
39219;DHT22;24934;52.752;6.964;2023-06-24T09:26:26;30.50;99.90
39219;DHT22;24934;52.752;6.964;2023-06-24T09:28:57;31.20;99.90
39219;DHT22;24934;52.752;6.964;2023-06-24T09:31:23;32.60;99.90
39219;DHT22;24934;52.752;6.964;2023-06-24T09:33:49;31.70;98.90
39219;DHT22;24934;52.752;6.964;2023-06-24T09:36:15;32.50;98.30
39219;DHT22;24934;52.752;6.964;2023-06-24T09:38:45;33.40;97.80
39219;DHT22;24934;52.752;6.964;2023-06-24T09:41:10;34.10;97.30
39219;DHT22;24934;52.752;6.964;2023-06-24T09:43:37;34.80;96.80
39219;DHT22;24934;52.752;6.964;2023-06-24T09:46:06;34.90;95.90
39219;DHT22;24934;52.752;6.964;2023-06-24T09:48:33;34.30;95.20
39219;DHT22;24934;52.752;6.964;2023-06-24T09:51:01;34.00;96.00
39219;DHT22;24934;52.752;6.964;2023-06-24T09:53:30;34.70;97.10
39219;DHT22;24934;52.752;6.964;2023-06-24T09:55:57;35.30;95.40
39219;DHT22;24934;52.752;6.964;2023-06-24T09:58:28;34.90;95.30
39219;DHT22;24934;52.752;6.964;2023-06-24T10:00:55;34.50;94.70
39219;DHT22;24934;52.752;6.964;2023-06-24T10:03:21;34.40;94.50
39219;DHT22;24934;52.752;6.964;2023-06-24T10:05:50;32.90;95.30
39219;DHT22;24934;52.752;6.964;2023-06-24T10:08:16;33.10;96.70
39219;DHT22;24934;52.752;6.964;2023-06-24T10:10:44;34.00;95.00
39219;DHT22;24934;52.752;6.964;2023-06-24T10:13:10;34.10;95.30
39219;DHT22;24934;52.752;6.964;2023-06-24T10:15:36;33.50;95.90
39219;DHT22;24934;52.752;6.964;2023-06-24T10:18:02;33.50;96.50
39219;DHT22;24934;52.752;6.964;2023-06-24T10:20:28;33.00;95.40
39219;DHT22;24934;52.752;6.964;2023-06-24T10:22:54;33.00;95.80
39219;DHT22;24934;52.752;6.964;2023-06-24T10:25:20;32.90;96.00
39219;DHT22;24934;52.752;6.964;2023-06-24T10:27:53;33.40;95.70
39219;DHT22;24934;52.752;6.964;2023-06-24T10:30:19;33.60;96.00
39219;DHT22;24934;52.752;6.964;2023-06-24T10:32:51;33.20;95.40
39219;DHT22;24934;52.752;6.964;2023-06-24T10:35:27;32.40;95.20
39219;DHT22;24934;52.752;6.964;2023-06-24T10:38:10;32.00;96.30
39219;DHT22;24934;52.752;6.964;2023-06-24T10:40:37;32.90;95.70
39219;DHT22;24934;52.752;6.964;2023-06-24T10:45:52;33.20;94.60
39219;DHT22;24934;52.752;6.964;2023-06-24T10:48:18;32.70;96.10
39219;DHT22;24934;52.752;6.964;2023-06-24T10:50:48;33.30;95.90
39219;DHT22;24934;52.752;6.964;2023-06-24T10:53:15;33.80;95.00
39219;DHT22;24934;52.752;6.964;2023-06-24T10:55:41;34.50;94.70
39219;DHT22;24934;52.752;6.964;2023-06-24T10:58:09;34.80;93.50
39219;DHT22;24934;52.752;6.964;2023-06-24T11:00:42;33.70;93.30
39219;DHT22;24934;52.752;6.964;2023-06-24T11:03:15;33.00;94.10
39219;DHT22;24934;52.752;6.964;2023-06-24T11:05:46;33.20;94.30
39219;DHT22;24934;52.752;6.964;2023-06-24T11:08:16;33.90;92.90
39219;DHT22;24934;52.752;6.964;2023-06-24T11:10:47;34.30;91.80
39219;DHT22;24934;52.752;6.964;2023-06-24T11:13:16;34.40;92.30
39219;DHT22;24934;52.752;6.964;2023-06-24T11:15:45;34.30;91.90
39219;DHT22;24934;52.752;6.964;2023-06-24T11:18:11;34.90;91.50
39219;DHT22;24934;52.752;6.964;2023-06-24T11:20:38;35.00;91.30
39219;DHT22;24934;52.752;6.964;2023-06-24T11:23:07;34.80;91.90
39219;DHT22;24934;52.752;6.964;2023-06-24T11:25:42;33.70;91.10
39219;DHT22;24934;52.752;6.964;2023-06-24T11:28:20;33.10;92.70
39219;DHT22;24934;52.752;6.964;2023-06-24T11:30:46;33.40;93.60
39219;DHT22;24934;52.752;6.964;2023-06-24T11:33:28;34.00;92.60
39219;DHT22;24934;52.752;6.964;2023-06-24T11:35:54;33.70;91.60
39219;DHT22;24934;52.752;6.964;2023-06-24T11:38:20;33.10;92.80
39219;DHT22;24934;52.752;6.964;2023-06-24T11:40:48;33.00;92.20
39219;DHT22;24934;52.752;6.964;2023-06-24T11:43:25;33.10;92.90
39219;DHT22;24934;52.752;6.964;2023-06-24T11:45:51;33.40;91.70
39219;DHT22;24934;52.752;6.964;2023-06-24T11:48:29;33.80;91.10
39219;DHT22;24934;52.752;6.964;2023-06-24T11:50:54;34.40;90.70
39219;DHT22;24934;52.752;6.964;2023-06-24T11:53:39;34.80;90.40
39219;DHT22;24934;52.752;6.964;2023-06-24T11:56:08;34.60;90.50
39219;DHT22;24934;52.752;6.964;2023-06-24T11:58:34;34.90;90.10
39219;DHT22;24934;52.752;6.964;2023-06-24T12:01:03;34.80;90.00
39219;DHT22;24934;52.752;6.964;2023-06-24T12:03:29;34.90;89.20
39219;DHT22;24934;52.752;6.964;2023-06-24T12:05:57;34.80;90.20
39219;DHT22;24934;52.752;6.964;2023-06-24T12:08:23;35.00;89.10
39219;DHT22;24934;52.752;6.964;2023-06-24T12:10:49;34.90;88.20
39219;DHT22;24934;52.752;6.964;2023-06-24T12:13:17;35.00;90.40
39219;DHT22;24934;52.752;6.964;2023-06-24T12:15:43;34.90;87.40
39219;DHT22;24934;52.752;6.964;2023-06-24T12:18:09;34.60;90.50
39219;DHT22;24934;52.752;6.964;2023-06-24T12:20:35;34.90;90.40
39219;DHT22;24934;52.752;6.964;2023-06-24T12:23:02;34.80;89.40
39219;DHT22;24934;52.752;6.964;2023-06-24T12:25:29;35.00;90.40
39219;DHT22;24934;52.752;6.964;2023-06-24T12:27:54;34.80;91.10
39219;DHT22;24934;52.752;6.964;2023-06-24T12:30:23;34.60;88.90
39219;DHT22;24934;52.752;6.964;2023-06-24T12:32:52;33.90;90.40
39219;DHT22;24934;52.752;6.964;2023-06-24T12:35:18;34.10;90.60
39219;DHT22;24934;52.752;6.964;2023-06-24T12:37:46;34.50;90.20
39219;DHT22;24934;52.752;6.964;2023-06-24T12:40:13;34.20;87.70
39219;DHT22;24934;52.752;6.964;2023-06-24T12:42:38;34.10;88.20
39219;DHT22;24934;52.752;6.964;2023-06-24T12:45:07;33.70;88.80
39219;DHT22;24934;52.752;6.964;2023-06-24T12:47:33;34.00;89.30
39219;DHT22;24934;52.752;6.964;2023-06-24T12:49:59;34.00;90.20
39219;DHT22;24934;52.752;6.964;2023-06-24T12:52:24;33.90;90.40
39219;DHT22;24934;52.752;6.964;2023-06-24T12:54:50;33.60;88.30
39219;DHT22;24934;52.752;6.964;2023-06-24T12:57:27;33.50;90.20
39219;DHT22;24934;52.752;6.964;2023-06-24T12:59:55;33.40;89.20
39219;DHT22;24934;52.752;6.964;2023-06-24T13:02:21;33.60;89.20
39219;DHT22;24934;52.752;6.964;2023-06-24T13:04:46;33.30;89.60
39219;DHT22;24934;52.752;6.964;2023-06-24T13:07:13;33.20;90.30
39219;DHT22;24934;52.752;6.964;2023-06-24T13:09:38;33.30;89.70
39219;DHT22;24934;52.752;6.964;2023-06-24T13:12:04;33.00;90.10
39219;DHT22;24934;52.752;6.964;2023-06-24T13:14:30;32.80;90.40
39219;DHT22;24934;52.752;6.964;2023-06-24T13:16:56;33.10;90.80
39219;DHT22;24934;52.752;6.964;2023-06-24T13:19:21;33.20;91.60
39219;DHT22;24934;52.752;6.964;2023-06-24T13:21:50;33.50;91.70
39219;DHT22;24934;52.752;6.964;2023-06-24T13:24:16;33.70;91.20
39219;DHT22;24934;52.752;6.964;2023-06-24T13:26:47;33.90;90.50
39219;DHT22;24934;52.752;6.964;2023-06-24T13:29:16;33.60;89.50
39219;DHT22;24934;52.752;6.964;2023-06-24T13:31:42;33.10;90.20
39219;DHT22;24934;52.752;6.964;2023-06-24T13:34:07;33.10;90.30
39219;DHT22;24934;52.752;6.964;2023-06-24T13:36:37;32.40;90.10
39219;DHT22;24934;52.752;6.964;2023-06-24T13:39:08;32.00;90.40
39219;DHT22;24934;52.752;6.964;2023-06-24T13:41:38;32.00;90.90
39219;DHT22;24934;52.752;6.964;2023-06-24T13:44:04;31.90;90.50
39219;DHT22;24934;52.752;6.964;2023-06-24T13:46:30;31.70;91.20
39219;DHT22;24934;52.752;6.964;2023-06-24T13:48:57;31.70;91.70
39219;DHT22;24934;52.752;6.964;2023-06-24T13:51:24;31.50;91.10
39219;DHT22;24934;52.752;6.964;2023-06-24T13:53:53;31.20;91.90
39219;DHT22;24934;52.752;6.964;2023-06-24T13:56:23;31.10;92.20
39219;DHT22;24934;52.752;6.964;2023-06-24T13:58:53;31.30;92.40
39219;DHT22;24934;52.752;6.964;2023-06-24T14:01:19;31.80;92.60
39219;DHT22;24934;52.752;6.964;2023-06-24T14:03:45;32.00;92.00
39219;DHT22;24934;52.752;6.964;2023-06-24T14:06:13;32.00;91.50
39219;DHT22;24934;52.752;6.964;2023-06-24T14:08:40;31.90;92.10
39219;DHT22;24934;52.752;6.964;2023-06-24T14:11:06;31.80;91.80
39219;DHT22;24934;52.752;6.964;2023-06-24T14:13:32;31.40;92.50
39219;DHT22;24934;52.752;6.964;2023-06-24T14:15:57;31.60;92.50
39219;DHT22;24934;52.752;6.964;2023-06-24T14:18:23;31.60;92.00
39219;DHT22;24934;52.752;6.964;2023-06-24T14:20:49;32.20;92.60
39219;DHT22;24934;52.752;6.964;2023-06-24T14:23:18;32.70;92.30
39219;DHT22;24934;52.752;6.964;2023-06-24T14:25:46;32.60;92.10
39219;DHT22;24934;52.752;6.964;2023-06-24T14:28:12;32.60;92.10
39219;DHT22;24934;52.752;6.964;2023-06-24T14:30:38;32.70;92.00
39219;DHT22;24934;52.752;6.964;2023-06-24T14:33:03;32.60;91.50
39219;DHT22;24934;52.752;6.964;2023-06-24T14:35:29;32.20;92.10
39219;DHT22;24934;52.752;6.964;2023-06-24T14:37:55;31.90;92.30
39219;DHT22;24934;52.752;6.964;2023-06-24T14:40:21;31.50;92.80
39219;DHT22;24934;52.752;6.964;2023-06-24T14:42:46;31.10;93.50
39219;DHT22;24934;52.752;6.964;2023-06-24T14:45:12;30.80;93.10
39219;DHT22;24934;52.752;6.964;2023-06-24T14:47:41;30.60;93.40
39219;DHT22;24934;52.752;6.964;2023-06-24T14:50:06;30.40;93.70
39219;DHT22;24934;52.752;6.964;2023-06-24T14:52:32;30.30;94.20
39219;DHT22;24934;52.752;6.964;2023-06-24T14:54:58;30.50;93.80
39219;DHT22;24934;52.752;6.964;2023-06-24T14:57:23;30.50;94.00
39219;DHT22;24934;52.752;6.964;2023-06-24T14:59:51;30.40;93.60
39219;DHT22;24934;52.752;6.964;2023-06-24T15:02:17;30.60;93.90
39219;DHT22;24934;52.752;6.964;2023-06-24T15:04:43;30.80;93.50
39219;DHT22;24934;52.752;6.964;2023-06-24T15:07:09;30.70;93.20
39219;DHT22;24934;52.752;6.964;2023-06-24T15:09:34;30.70;93.90
39219;DHT22;24934;52.752;6.964;2023-06-24T15:12:01;30.70;94.00
39219;DHT22;24934;52.752;6.964;2023-06-24T15:14:27;30.80;95.30
39219;DHT22;24934;52.752;6.964;2023-06-24T15:16:52;30.60;93.90
39219;DHT22;24934;52.752;6.964;2023-06-24T15:19:19;30.50;94.30
39219;DHT22;24934;52.752;6.964;2023-06-24T15:21:45;30.30;93.70
39219;DHT22;24934;52.752;6.964;2023-06-24T15:24:11;30.40;95.20
39219;DHT22;24934;52.752;6.964;2023-06-24T15:26:36;30.20;95.50
39219;DHT22;24934;52.752;6.964;2023-06-24T15:29:02;30.20;94.90
39219;DHT22;24934;52.752;6.964;2023-06-24T15:31:28;30.10;96.20
39219;DHT22;24934;52.752;6.964;2023-06-24T15:33:54;30.10;96.10
39219;DHT22;24934;52.752;6.964;2023-06-24T15:36:20;30.00;96.40
39219;DHT22;24934;52.752;6.964;2023-06-24T15:38:47;30.10;96.90
39219;DHT22;24934;52.752;6.964;2023-06-24T15:41:13;30.10;96.40
39219;DHT22;24934;52.752;6.964;2023-06-24T15:43:42;30.10;96.30
39219;DHT22;24934;52.752;6.964;2023-06-24T15:46:08;30.20;96.40
39219;DHT22;24934;52.752;6.964;2023-06-24T15:48:39;30.10;95.00